createdAt,value
2019-04-28T00:01:57.319Z,95262.31
2019-04-28T00:04:23.440Z,95267.63
2019-04-28T00:06:49.566Z,95265.55
2019-04-28T00:09:15.790Z,95260.82
2019-04-28T00:11:41.912Z,95261.33
2019-04-28T00:14:08.504Z,95256.56
2019-04-28T00:16:34.879Z,95257.93
2019-04-28T00:19:01.342Z,95256.02
2019-04-28T00:21:44.504Z,95258.06
2019-04-28T00:24:23.059Z,95256.15
2019-04-28T00:26:52.043Z,95252.17
2019-04-28T00:29:18.714Z,95249.68
2019-04-28T00:31:44.980Z,95253.55
2019-04-28T00:34:11.613Z,95249.80
2019-04-28T00:36:38.022Z,95248.72
2019-04-28T00:39:05.050Z,95245.04
2019-04-28T00:41:31.182Z,95245.04
2019-04-28T00:43:57.238Z,95248.44
2019-04-28T00:46:25.260Z,95244.70
2019-04-28T00:48:51.412Z,95240.95
2019-04-28T00:51:17.506Z,95244.63
2019-04-28T00:53:43.920Z,95250.23
2019-04-28T00:56:11.759Z,95247.34
2019-04-28T00:58:37.995Z,95247.86
2019-04-28T01:01:15.135Z,95247.75
2019-04-28T01:03:42.049Z,95254.30
2019-04-28T01:06:08.313Z,95249.81
2019-04-28T01:08:34.608Z,95251.66
2019-04-28T01:11:01.826Z,95249.54
2019-04-28T01:13:28.164Z,95254.38
2019-04-28T01:18:36.488Z,95249.00
2019-04-28T01:21:02.723Z,95254.42
2019-04-28T01:23:30.263Z,95247.45
2019-04-28T01:25:56.732Z,95256.83
2019-04-28T01:28:22.879Z,95255.42
2019-04-28T01:30:54.363Z,95253.23
2019-04-28T01:33:22.391Z,95253.27
2019-04-28T01:35:49.407Z,95252.30
2019-04-28T01:38:15.654Z,95253.20
2019-04-28T01:40:41.775Z,95249.97
2019-04-28T01:43:09.689Z,95250.01
2019-04-28T01:45:36.041Z,95248.68
2019-04-28T01:48:02.380Z,95255.57
2019-04-28T01:50:29.971Z,95251.91
2019-04-28T01:52:56.350Z,95252.59
2019-04-28T01:55:22.472Z,95247.92
2019-04-28T01:57:49.758Z,95250.98
2019-04-28T02:00:24.569Z,95243.97
2019-04-28T02:02:45.621Z,95252.78
2019-04-28T02:05:11.935Z,95249.70
2019-04-28T02:07:38.063Z,95241.79
2019-04-28T02:10:04.908Z,95244.72
2019-04-28T02:12:31.125Z,95249.47
2019-04-28T02:14:57.236Z,95241.51
2019-04-28T02:17:23.374Z,95241.44
2019-04-28T02:19:51.175Z,95244.59
2019-04-28T02:22:25.417Z,95246.50
2019-04-28T02:24:51.639Z,95244.94
2019-04-28T02:27:17.987Z,95245.61
2019-04-28T02:29:44.083Z,95247.80
2019-04-28T02:32:12.037Z,95242.25
2019-04-28T02:34:40.710Z,95245.97
2019-04-28T02:37:06.117Z,95240.26
2019-04-28T02:39:32.282Z,95242.07
2019-04-28T02:42:01.208Z,95240.20
2019-04-28T02:44:30.678Z,95241.89
2019-04-28T02:46:54.629Z,95245.09
2019-04-28T02:49:22.651Z,95237.14
2019-04-28T02:52:07.393Z,95241.11
2019-04-28T02:54:33.506Z,95238.88
2019-04-28T02:57:01.351Z,95243.09
2019-04-28T02:59:30.360Z,95243.09
2019-04-28T03:01:55.730Z,95240.84
2019-04-28T03:04:21.847Z,95243.38
2019-04-28T03:06:48.005Z,95246.38
2019-04-28T03:09:14.230Z,95238.50
2019-04-28T03:11:42.753Z,95251.10
2019-04-28T03:14:11.061Z,95245.45
2019-04-28T03:16:36.498Z,95245.40
2019-04-28T03:19:02.631Z,95249.77
2019-04-28T03:21:31.075Z,95251.80
2019-04-28T03:23:56.791Z,95246.88
2019-04-28T03:26:33.666Z,95251.80
2019-04-28T03:29:04.616Z,95257.00
2019-04-28T03:32:14.862Z,95253.97
2019-04-28T03:34:17.219Z,95257.67
2019-04-28T03:36:43.364Z,95264.45
2019-04-28T03:39:10.996Z,95258.91
2019-04-28T03:41:37.425Z,95257.08
2019-04-28T03:44:03.544Z,95255.05
2019-04-28T03:46:31.500Z,95265.36
2019-04-28T03:48:57.505Z,95254.45
2019-04-28T03:51:23.699Z,95266.16
2019-04-28T03:53:50.710Z,95268.02
2019-04-28T03:56:16.861Z,95270.13
2019-04-28T03:58:42.886Z,95270.81
2019-04-28T04:01:10.792Z,95276.22
2019-04-28T04:03:37.149Z,95283.94
2019-04-28T04:06:03.394Z,95284.57
2019-04-28T04:08:31.033Z,95288.27
2019-04-28T04:11:00.252Z,95284.52
2019-04-28T04:13:32.661Z,95290.41
2019-04-28T04:21:36.516Z,95303.43
2019-04-28T04:24:02.649Z,95298.78
2019-04-28T04:26:31.080Z,95298.97
2019-04-28T04:28:56.692Z,95299.47
2019-04-28T04:31:22.724Z,95302.86
2019-04-28T04:33:50.618Z,95298.98
2019-04-28T04:36:16.840Z,95304.55
2019-04-28T04:38:46.311Z,95308.33
2019-04-28T04:41:11.407Z,95310.44
2019-04-28T04:43:37.648Z,95306.78
2019-04-28T04:48:56.496Z,95315.74
2019-04-28T04:51:22.657Z,95310.90
2019-04-28T04:53:51.145Z,95310.90
2019-04-28T04:56:16.828Z,95311.18
2019-04-28T04:58:42.845Z,95305.83
2019-04-28T05:01:16.635Z,95310.31
2019-04-28T05:03:44.596Z,95311.63
2019-04-28T05:06:29.784Z,95309.30
2019-04-28T05:08:56.060Z,95313.55
2019-04-28T05:11:22.211Z,95311.95
2019-04-28T05:13:49.789Z,95315.74
2019-04-28T05:16:16.053Z,95318.98
2019-04-28T05:18:42.105Z,95314.59
2019-04-28T05:21:08.225Z,95313.78
2019-04-28T05:23:36.086Z,95317.52
2019-04-28T05:26:08.032Z,95323.47
2019-04-28T05:28:32.477Z,95323.47
2019-04-28T05:31:00.039Z,95317.06
2019-04-28T05:33:30.673Z,95323.92
2019-04-28T05:35:54.598Z,95320.91
2019-04-28T05:38:20.867Z,95313.64
2019-04-28T05:40:46.982Z,95318.72
2019-04-28T05:43:13.144Z,95320.18
2019-04-28T05:45:39.807Z,95319.16
2019-04-28T05:48:08.873Z,95321.73
2019-04-28T05:50:35.981Z,95323.73
2019-04-28T05:53:10.761Z,95321.08
2019-04-28T05:55:50.061Z,95321.41
2019-04-28T05:58:20.933Z,95325.56
2019-04-28T06:01:05.403Z,95325.84
2019-04-28T06:03:33.001Z,95321.50
2019-04-28T06:05:59.972Z,95325.55
2019-04-28T06:08:31.082Z,95323.77
2019-04-28T06:11:02.448Z,95330.40
2019-04-28T06:13:30.287Z,95329.30
2019-04-28T06:15:56.520Z,95322.14
2019-04-28T06:18:22.676Z,95330.45
2019-04-28T06:20:49.788Z,95332.82
2019-04-28T06:23:16.200Z,95327.52
2019-04-28T06:25:42.495Z,95339.22
2019-04-28T06:28:08.615Z,95338.94
2019-04-28T06:30:34.924Z,95338.41
2019-04-28T06:33:07.532Z,95338.71
2019-04-28T06:35:29.309Z,95346.94
2019-04-28T06:37:55.587Z,95338.98
2019-04-28T06:40:21.806Z,95338.94
2019-04-28T06:42:48.061Z,95340.03
2019-04-28T06:45:14.221Z,95340.91
2019-04-28T06:47:40.441Z,95344.61
2019-04-28T06:50:06.812Z,95341.50
2019-04-28T06:52:33.126Z,95343.70
2019-04-28T06:54:59.348Z,95340.55
2019-04-28T06:57:25.932Z,95349.00
2019-04-28T06:59:54.197Z,95346.89
2019-04-28T07:02:20.316Z,95345.61
2019-04-28T07:04:46.499Z,95342.23
2019-04-28T07:07:12.727Z,95343.84
2019-04-28T07:09:38.850Z,95344.80
2019-04-28T07:12:05.002Z,95347.53
2019-04-28T07:14:31.034Z,95348.12
2019-04-28T07:16:57.323Z,95345.75
2019-04-28T07:19:23.636Z,95352.73
2019-04-28T07:21:57.424Z,95351.92
2019-04-28T07:24:23.725Z,95350.91
2019-04-28T07:26:49.853Z,95360.05
2019-04-28T07:29:15.981Z,95361.38
2019-04-28T07:31:42.249Z,95355.62
2019-04-28T07:34:08.486Z,95357.54
2019-04-28T07:36:37.882Z,95362.92
2019-04-28T07:39:05.675Z,95374.03
2019-04-28T07:41:31.810Z,95385.64
2019-04-28T07:43:57.962Z,95406.78
2019-04-28T07:46:27.086Z,95410.97
2019-04-28T07:48:53.270Z,95426.78
2019-04-28T07:51:23.503Z,95425.88
2019-04-28T07:53:54.457Z,95415.70
2019-04-28T07:56:20.625Z,95432.31
2019-04-28T07:58:46.753Z,95440.76
2019-04-28T08:01:13.005Z,95433.06
2019-04-28T08:03:49.335Z,95429.16
2019-04-28T08:06:09.884Z,95424.69
2019-04-28T08:08:36.021Z,95437.20
2019-04-28T08:11:02.540Z,95436.34
2019-04-28T08:13:28.650Z,95434.93
2019-04-28T08:15:54.817Z,95428.81
2019-04-28T08:18:20.956Z,95440.56
2019-04-28T08:20:47.191Z,95437.04
2019-04-28T08:23:13.347Z,95447.50
2019-04-28T08:25:39.501Z,95449.10
2019-04-28T08:28:05.659Z,95442.70
2019-04-28T08:30:31.915Z,95454.39
2019-04-28T08:36:04.170Z,95457.80
2019-04-28T08:38:30.309Z,95464.65
2019-04-28T08:40:56.494Z,95459.70
2019-04-28T08:43:22.536Z,95479.16
2019-04-28T08:45:48.670Z,95471.77
2019-04-28T08:48:14.812Z,95458.03
2019-04-28T08:50:43.967Z,95468.52
2019-04-28T08:53:10.112Z,95462.89
2019-04-28T08:55:38.099Z,95461.79
2019-04-28T08:58:04.337Z,95472.92
2019-04-28T09:00:30.468Z,95469.30
2019-04-28T09:02:56.613Z,95462.45
2019-04-28T09:05:22.731Z,95468.08
2019-04-28T09:07:48.859Z,95472.31
2019-04-28T09:10:15.021Z,95470.95
2019-04-28T09:12:41.152Z,95472.27
2019-04-28T09:15:07.518Z,95465.87
2019-04-28T09:17:33.767Z,95470.66
2019-04-28T09:19:59.989Z,95462.45
2019-04-28T09:22:26.116Z,95462.39
2019-04-28T09:24:52.357Z,95465.75
2019-04-28T09:27:18.478Z,95464.09
2019-04-28T09:29:44.591Z,95461.95
2019-04-28T09:32:10.716Z,95464.20
2019-04-28T09:34:36.846Z,95453.89
2019-04-28T09:37:02.976Z,95463.09
2019-04-28T09:39:47.607Z,95461.49
2019-04-28T09:42:21.328Z,95454.05
2019-04-28T09:44:47.444Z,95452.35
2019-04-28T09:47:13.564Z,95454.88
2019-04-28T09:49:39.679Z,95451.34
2019-04-28T09:52:05.793Z,95457.37
2019-04-28T09:54:31.924Z,95454.31
2019-04-28T09:56:57.951Z,95450.27
2019-04-28T09:59:24.068Z,95457.91
2019-04-28T10:01:50.091Z,95447.62
2019-04-28T10:04:16.225Z,95448.73
2019-04-28T10:06:42.371Z,95450.72
2019-04-28T10:09:08.587Z,95450.94
2019-04-28T10:11:34.728Z,95446.81
2019-04-28T10:14:00.849Z,95454.25
2019-04-28T10:16:27.075Z,95449.67
2019-04-28T10:18:53.237Z,95438.42
2019-04-28T10:21:19.468Z,95443.94
2019-04-28T10:23:45.633Z,95444.31
2019-04-28T10:26:11.754Z,95443.09
2019-04-28T10:28:37.918Z,95447.49
2019-04-28T10:31:05.825Z,95442.58
2019-04-28T10:33:31.998Z,95448.75
2019-04-28T10:35:58.018Z,95446.27
2019-04-28T10:38:24.143Z,95445.67
2019-04-28T10:40:54.717Z,95451.56
2019-04-28T10:43:20.877Z,95450.64
2019-04-28T10:45:57.677Z,95452.95
2019-04-28T10:48:24.137Z,95445.69
2019-04-28T10:50:50.423Z,95448.48
2019-04-28T10:53:16.680Z,95457.61
2019-04-28T10:55:44.880Z,95449.86
2019-04-28T10:58:11.274Z,95438.08
2019-04-28T11:00:40.447Z,95445.53
2019-04-28T11:03:06.683Z,95437.75
2019-04-28T11:05:34.881Z,95440.80
2019-04-28T11:08:03.124Z,95441.12
2019-04-28T11:10:29.284Z,95440.01
2019-04-28T11:12:57.475Z,95435.08
2019-04-28T11:18:23.220Z,95435.27
2019-04-28T11:20:49.404Z,95434.25
2019-04-28T11:23:15.550Z,95437.31
2019-04-28T11:25:41.723Z,95443.15
2019-04-28T11:28:09.723Z,95429.23
2019-04-28T11:30:35.991Z,95433.80
2019-04-28T11:33:04.140Z,95429.16
2019-04-28T11:35:32.251Z,95430.94
2019-04-28T11:37:58.381Z,95428.14
2019-04-28T11:40:25.706Z,95429.70
2019-04-28T11:42:51.882Z,95427.61
2019-04-28T11:45:18.259Z,95427.05
2019-04-28T11:47:44.594Z,95428.05
2019-04-28T11:50:10.911Z,95428.37
2019-04-28T11:52:37.129Z,95425.55
2019-04-28T11:55:05.458Z,95426.29
2019-04-28T11:57:31.703Z,95420.77
2019-04-28T11:59:57.956Z,95419.22
2019-04-28T12:02:24.228Z,95414.59
2019-04-28T12:04:52.289Z,95422.04
2019-04-28T12:07:18.538Z,95417.16
2019-04-28T12:10:04.256Z,95419.38
2019-04-28T12:12:25.025Z,95419.24
2019-04-28T12:14:55.995Z,95417.31
2019-04-28T12:17:27.099Z,95424.31
2019-04-28T12:19:55.147Z,95415.05
2019-04-28T12:22:21.293Z,95411.58
2019-04-28T12:24:47.488Z,95412.23
2019-04-28T12:27:13.616Z,95413.92
2019-04-28T12:29:39.737Z,95415.10
2019-04-28T12:32:05.871Z,95416.12
2019-04-28T12:34:32.000Z,95411.13
2019-04-28T12:36:58.189Z,95415.10
2019-04-28T12:39:24.322Z,95423.11
2019-04-28T12:41:50.531Z,95417.44
2019-04-28T12:44:16.675Z,95415.55
2019-04-28T12:46:43.984Z,95401.34
2019-04-28T12:49:12.007Z,95404.05
2019-04-28T12:51:38.282Z,95398.02
2019-04-28T12:54:06.332Z,95389.48
2019-04-28T12:56:32.462Z,95392.44
2019-04-28T12:59:00.437Z,95387.81
2019-04-28T13:01:31.569Z,95392.72
2019-04-28T13:04:22.743Z,95385.90
2019-04-28T13:07:05.460Z,95388.41
2019-04-28T13:09:31.694Z,95378.23
2019-04-28T13:11:57.840Z,95382.06
2019-04-28T13:14:23.979Z,95372.84
2019-04-28T13:16:50.112Z,95378.52
2019-04-28T13:19:22.241Z,95372.11
2019-04-28T13:21:53.328Z,95371.24
2019-04-28T13:24:19.670Z,95373.16
2019-04-28T13:26:53.638Z,95374.84
2019-04-28T13:29:20.430Z,95367.72
2019-04-28T13:31:49.089Z,95368.37
2019-04-28T13:34:21.730Z,95367.27
2019-04-28T13:36:47.430Z,95367.27
2019-04-28T13:39:24.379Z,95379.70
2019-04-28T13:41:50.741Z,95374.71
2019-04-28T13:44:37.504Z,95367.78
2019-04-28T13:47:13.472Z,95370.51
2019-04-28T13:49:58.049Z,95383.48
2019-04-28T13:52:24.846Z,95377.87
2019-04-28T13:55:04.335Z,95380.38
2019-04-28T13:57:30.486Z,95384.06
2019-04-28T13:59:58.609Z,95382.52
2019-04-28T14:02:40.480Z,95372.14
2019-04-28T14:07:47.251Z,95377.50
2019-04-28T14:10:13.553Z,95379.41
2019-04-28T14:12:39.879Z,95389.20
2019-04-28T14:15:06.404Z,95382.16
2019-04-28T14:17:32.559Z,95386.55
2019-04-28T14:19:58.652Z,95389.20
2019-04-28T14:22:25.004Z,95377.95
2019-04-28T14:24:51.046Z,95388.45
2019-04-28T14:27:17.442Z,95385.58
2019-04-28T14:29:43.727Z,95394.43
2019-04-28T14:32:10.106Z,95388.84
2019-04-28T14:34:36.651Z,95390.23
2019-04-28T14:37:03.203Z,95388.45
2019-04-28T14:39:29.661Z,95397.73
2019-04-28T14:41:55.794Z,95391.87
2019-04-28T14:44:22.064Z,95394.03
2019-04-28T14:46:48.417Z,95388.84
2019-04-28T14:49:14.723Z,95400.37
2019-04-28T14:51:41.132Z,95394.76
2019-04-28T14:54:07.488Z,95398.97
2019-04-28T14:56:34.000Z,95398.08
2019-04-28T14:59:03.970Z,95394.70
2019-04-28T15:01:44.818Z,95403.66
2019-04-28T15:04:27.699Z,95394.25
2019-04-28T15:06:59.305Z,95404.47
2019-04-28T15:09:25.554Z,95406.66
2019-04-28T15:11:59.320Z,95403.50
2019-04-28T15:14:25.515Z,95392.03
2019-04-28T15:16:51.652Z,95406.02
2019-04-28T15:19:18.051Z,95407.87
2019-04-28T15:21:44.138Z,95405.66
2019-04-28T15:24:10.262Z,95413.00
2019-04-28T15:26:36.398Z,95416.41
2019-04-28T15:29:02.553Z,95411.02
2019-04-28T15:31:28.671Z,95412.63
2019-04-28T15:33:54.903Z,95407.70
2019-04-28T15:36:21.047Z,95416.54
2019-04-28T15:38:49.269Z,95423.58
2019-04-28T15:41:21.883Z,95411.80
2019-04-28T15:43:43.254Z,95421.92
2019-04-28T15:46:09.391Z,95415.61
2019-04-28T15:48:35.560Z,95408.91
2019-04-28T15:51:01.775Z,95403.11
2019-04-28T15:53:28.593Z,95401.72
2019-04-28T15:55:56.510Z,95392.48
2019-04-28T15:58:29.294Z,95388.72
2019-04-28T16:00:55.568Z,95390.79
2019-04-28T16:03:21.797Z,95386.69
2019-04-28T16:05:47.935Z,95392.86
2019-04-28T16:08:14.178Z,95391.40
2019-04-28T16:10:40.508Z,95388.53
2019-04-28T16:13:07.118Z,95391.73
2019-04-28T16:15:33.238Z,95389.61
2019-04-28T16:18:02.352Z,95392.11
2019-04-28T16:20:29.765Z,95390.06
2019-04-28T16:22:56.208Z,95392.98
2019-04-28T16:26:02.909Z,95395.94
2019-04-28T16:28:29.083Z,95399.03
2019-04-28T16:30:55.189Z,95404.92
2019-04-28T16:33:21.313Z,95399.77
2019-04-28T16:35:48.199Z,95397.69
2019-04-28T16:38:14.553Z,95404.31
2019-04-28T16:40:46.691Z,95398.36
2019-04-28T16:43:17.906Z,95396.02
2019-04-28T16:45:44.013Z,95401.66
2019-04-28T16:48:10.168Z,95402.48
2019-04-28T16:50:36.299Z,95412.10
2019-04-28T16:53:02.453Z,95406.73
2019-04-28T16:55:30.498Z,95412.90
2019-04-28T16:58:01.402Z,95413.59
2019-04-28T17:00:35.249Z,95399.75
2019-04-28T17:03:01.461Z,95404.10
2019-04-28T17:05:27.491Z,95406.75
2019-04-28T17:07:53.643Z,95408.73
2019-04-28T17:10:19.758Z,95403.43
2019-04-28T17:12:48.495Z,95409.45
2019-04-28T17:15:14.610Z,95412.33
2019-04-28T17:17:40.770Z,95400.92
2019-04-28T17:20:07.244Z,95398.88
2019-04-28T17:22:33.354Z,95405.05
2019-04-28T17:24:59.481Z,95411.73
2019-04-28T17:27:25.594Z,95409.39
2019-04-28T17:29:51.641Z,95417.47
2019-04-28T17:32:17.971Z,95415.77
2019-04-28T17:34:44.098Z,95420.63
2019-04-28T17:37:10.720Z,95417.66
2019-04-28T17:39:37.971Z,95425.03
2019-04-28T17:42:04.508Z,95417.00
2019-04-28T17:44:30.635Z,95421.70
2019-04-28T17:46:56.664Z,95428.25
2019-04-28T17:49:24.588Z,95425.38
2019-04-28T17:51:50.697Z,95424.28
2019-04-28T17:54:16.609Z,95426.45
2019-04-28T17:56:42.734Z,95429.92
2019-04-28T17:59:08.839Z,95436.47
2019-04-28T18:01:36.873Z,95434.61
2019-04-28T18:04:23.258Z,95431.97
2019-04-28T18:07:00.390Z,95426.61
2019-04-28T18:09:26.611Z,95427.05
2019-04-28T18:11:52.722Z,95420.84
2019-04-28T18:14:18.943Z,95424.09
2019-04-28T18:17:04.931Z,95421.82
2019-04-28T18:19:31.158Z,95421.00
2019-04-28T18:21:57.310Z,95421.38
2019-04-28T18:24:24.616Z,95423.87
2019-04-28T18:26:50.892Z,95429.31
2019-04-28T18:29:17.012Z,95430.09
2019-04-28T18:31:45.094Z,95444.64
2019-04-28T18:34:29.929Z,95444.20
2019-04-28T18:37:09.776Z,95446.85
2019-04-28T18:39:54.375Z,95448.61
2019-04-28T18:42:38.696Z,95434.47
2019-04-28T18:45:05.045Z,95436.61
2019-04-28T18:47:30.992Z,95438.59
2019-04-28T18:49:57.109Z,95446.20
2019-04-28T18:52:23.240Z,95448.01
2019-04-28T18:54:49.444Z,95457.12
2019-04-28T18:57:15.499Z,95451.98
2019-04-28T18:59:41.466Z,95445.81
2019-04-28T19:02:18.116Z,95443.17
2019-04-28T19:04:44.338Z,95445.21
2019-04-28T19:07:12.258Z,95449.78
2019-04-28T19:09:40.200Z,95452.82
2019-04-28T19:15:04.854Z,95443.28
2019-04-28T19:17:38.720Z,95448.28
2019-04-28T19:20:05.129Z,95445.42
2019-04-28T19:22:36.238Z,95436.23
2019-04-28T19:25:04.507Z,95438.53
2019-04-28T19:27:30.423Z,95441.08
2019-04-28T19:29:57.645Z,95437.42
2019-04-28T19:32:24.050Z,95433.97
2019-04-28T19:34:50.186Z,95433.90
2019-04-28T19:37:16.413Z,95437.48
2019-04-28T19:39:42.545Z,95441.78
2019-04-28T19:42:08.679Z,95438.32
2019-04-28T19:44:34.932Z,95439.19
2019-04-28T19:47:01.120Z,95428.68
2019-04-28T19:49:27.227Z,95428.78
2019-04-28T19:51:53.369Z,95428.34
2019-04-28T19:54:21.289Z,95426.64
2019-04-28T19:56:52.559Z,95424.53
2019-04-28T19:59:23.647Z,95425.41
2019-04-28T20:01:49.872Z,95413.59
2019-04-28T20:04:16.223Z,95411.77
2019-04-28T20:06:42.646Z,95416.23
2019-04-28T20:09:08.822Z,95417.66
2019-04-28T20:11:34.938Z,95408.39
2019-04-28T20:14:01.061Z,95407.80
2019-04-28T20:16:27.222Z,95410.27
2019-04-28T20:18:53.246Z,95416.88
2019-04-28T20:21:19.506Z,95412.48
2019-04-28T20:23:45.626Z,95420.84
2019-04-28T20:26:11.842Z,95415.99
2019-04-28T20:28:37.952Z,95408.12
2019-04-28T20:31:04.685Z,95406.81
2019-04-28T20:33:30.834Z,95410.05
2019-04-28T20:38:45.176Z,95409.02
2019-04-28T20:41:13.242Z,95407.51
2019-04-28T20:43:39.403Z,95411.55
2019-04-28T20:46:05.535Z,95402.79
2019-04-28T20:48:31.673Z,95406.76
2019-04-28T20:50:57.795Z,95409.72
2019-04-28T20:53:23.930Z,95407.07
2019-04-28T20:55:50.059Z,95406.47
2019-04-28T20:58:16.112Z,95399.70
2019-04-28T21:00:42.319Z,95397.54
2019-04-28T21:03:08.543Z,95397.44
2019-04-28T21:05:34.695Z,95395.83
2019-04-28T21:08:00.855Z,95387.90
2019-04-28T21:10:37.287Z,95394.80
2019-04-28T21:12:55.014Z,95396.55
2019-04-28T21:15:21.143Z,95391.77
2019-04-28T21:17:47.265Z,95396.55
2019-04-28T21:20:13.421Z,95389.45
2019-04-28T21:22:39.538Z,95390.78
2019-04-28T21:25:06.063Z,95400.20
2019-04-28T21:27:32.192Z,95391.16
2019-04-28T21:29:58.316Z,95399.91
2019-04-28T21:32:24.445Z,95397.05
2019-04-28T21:34:50.580Z,95391.38
2019-04-28T21:37:18.399Z,95391.53
2019-04-28T21:39:44.778Z,95391.59
2019-04-28T21:42:12.810Z,95394.17
2019-04-28T21:44:52.942Z,95388.66
2019-04-28T21:47:23.446Z,95389.84
2019-04-28T21:49:49.568Z,95389.34
2019-04-28T21:52:15.694Z,95391.70
2019-04-28T21:54:41.844Z,95390.70
2019-04-28T21:57:07.870Z,95384.31
2019-04-28T21:59:33.893Z,95384.70
2019-04-28T22:02:00.174Z,95386.81
2019-04-28T22:04:26.302Z,95385.31
2019-04-28T22:06:52.590Z,95383.71
2019-04-28T22:09:18.924Z,95380.95
2019-04-28T22:11:45.203Z,95389.55
2019-04-28T22:14:11.317Z,95384.77
2019-04-28T22:16:37.502Z,95384.77
2019-04-28T22:19:03.620Z,95383.77
2019-04-28T22:21:29.797Z,95385.09
2019-04-28T22:23:57.730Z,95384.27
2019-04-28T22:26:43.467Z,95377.05
2019-04-28T22:29:09.833Z,95378.38
2019-04-28T22:31:35.846Z,95378.09
2019-04-28T22:34:01.969Z,95375.95
2019-04-28T22:36:28.061Z,95377.27
2019-04-28T22:38:54.180Z,95375.23
2019-04-28T22:41:20.305Z,95371.27
2019-04-28T22:43:46.492Z,95372.88
2019-04-28T22:46:12.658Z,95359.16
2019-04-28T22:48:38.878Z,95363.23
2019-04-28T22:51:05.069Z,95367.20
2019-04-28T22:53:33.110Z,95366.98
2019-04-28T22:58:47.645Z,95356.41
2019-04-28T23:01:15.700Z,95361.70
2019-04-28T23:03:46.479Z,95360.96
2019-04-28T23:06:12.708Z,95354.14
2019-04-28T23:08:38.886Z,95358.48
2019-04-28T23:11:05.014Z,95359.20
2019-04-28T23:13:31.185Z,95349.14
2019-04-28T23:15:57.398Z,95353.44
2019-04-28T23:18:23.626Z,95353.22
2019-04-28T23:21:08.989Z,95346.83
2019-04-28T23:23:35.163Z,95348.30
2019-04-28T23:26:03.003Z,95347.75
2019-04-28T23:28:29.301Z,95341.86
2019-04-28T23:30:55.438Z,95347.75
2019-04-28T23:33:21.668Z,95340.48
2019-04-28T23:35:47.789Z,95339.23
2019-04-28T23:38:13.905Z,95344.40
2019-04-28T23:40:42.009Z,95346.33
2019-04-28T23:43:15.571Z,95332.22
2019-04-28T23:45:41.669Z,95335.58
2019-04-28T23:48:07.792Z,95339.98
2019-04-28T23:50:35.820Z,95339.38
2019-04-28T23:53:06.404Z,95331.02
2019-04-28T23:55:32.533Z,95339.02
2019-04-28T23:57:58.629Z,95330.58
